TCA7378 SVMI-TKPK
Flight info
| Callsign | TCA7378 |
|---|---|
| Flight time | N/A |
| Altitude | 45000 |
| Route | DARPA2 DARPA G432 LRS/N0402F410 DCT ETALA DCT MODUX DCT SKB |
| Aircraft | C25B/M-SDE2E3FGHRWXY/LB1 |
Departure
| Time | N/A |
|---|---|
| Airport | Maiquetía Simón Bolívar International Airport (SVMI) |
Arrival
| Time | 2026-05-04 21:41 |
|---|---|
| Airport | Robert L. Bradshaw International Airport (TKPK) |
| Time | Latitude | Longitude | Altitude | Speed | Heading |
|---|---|---|---|---|---|
| 2026-05-04 20:37 | 12.10073 | -66.54501 | 44971 ft | 400 kts | 35° |
| 2026-05-04 20:37 | 12.14452 | -66.50954 | 44971 ft | 404 kts | 35° |
| 2026-05-04 20:38 | 12.18869 | -66.47377 | 44971 ft | 406 kts | 35° |
| 2026-05-04 20:38 | 12.23297 | -66.43788 | 44972 ft | 407 kts | 35° |
| 2026-05-04 20:39 | 12.27722 | -66.40197 | 44973 ft | 406 kts | 35° |
| 2026-05-04 20:39 | 12.32111 | -66.36637 | 44971 ft | 405 kts | 35° |
| 2026-05-04 20:40 | 12.36517 | -66.33060 | 44970 ft | 404 kts | 35° |
| 2026-05-04 20:40 | 12.40915 | -66.29489 | 44969 ft | 403 kts | 35° |
| 2026-05-04 20:41 | 12.45305 | -66.25923 | 44968 ft | 403 kts | 35° |
| 2026-05-04 20:41 | 12.49660 | -66.22383 | 44967 ft | 402 kts | 35° |
| 2026-05-04 20:42 | 12.54035 | -66.18826 | 44973 ft | 402 kts | 35° |
| 2026-05-04 20:42 | 12.58407 | -66.15270 | 44975 ft | 401 kts | 35° |
| 2026-05-04 20:43 | 12.62777 | -66.11715 | 44975 ft | 401 kts | 35° |
| 2026-05-04 20:43 | 12.67115 | -66.08183 | 44974 ft | 401 kts | 36° |
| 2026-05-04 20:44 | 12.71480 | -66.04627 | 44974 ft | 401 kts | 36° |
| 2026-05-04 20:44 | 12.75843 | -66.01071 | 44974 ft | 401 kts | 36° |
| 2026-05-04 20:45 | 12.80204 | -65.97516 | 44974 ft | 400 kts | 35° |
| 2026-05-04 20:45 | 12.84533 | -65.93987 | 44975 ft | 400 kts | 35° |
| 2026-05-04 20:46 | 12.88882 | -65.90439 | 44975 ft | 400 kts | 35° |
| 2026-05-04 20:46 | 12.93233 | -65.86887 | 44975 ft | 400 kts | 35° |
| 2026-05-04 20:47 | 12.97581 | -65.83336 | 44974 ft | 400 kts | 36° |
| 2026-05-04 20:47 | 13.01899 | -65.79807 | 44975 ft | 399 kts | 36° |
| 2026-05-04 20:48 | 13.06243 | -65.76256 | 44975 ft | 399 kts | 36° |
| 2026-05-04 20:48 | 13.10585 | -65.72704 | 44975 ft | 399 kts | 36° |
| 2026-05-04 20:49 | 13.14926 | -65.69153 | 44975 ft | 399 kts | 36° |
| 2026-05-04 20:49 | 13.19260 | -65.65605 | 44975 ft | 399 kts | 36° |
| 2026-05-04 20:50 | 13.23567 | -65.62076 | 44975 ft | 399 kts | 36° |
| 2026-05-04 20:50 | 13.27902 | -65.58524 | 44975 ft | 399 kts | 36° |
| 2026-05-04 20:51 | 13.32236 | -65.54971 | 44975 ft | 399 kts | 36° |
| 2026-05-04 20:51 | 13.36565 | -65.51419 | 44976 ft | 398 kts | 36° |
| 2026-05-04 20:52 | 13.40866 | -65.47890 | 44976 ft | 398 kts | 36° |
| 2026-05-04 20:52 | 13.45190 | -65.44340 | 44976 ft | 398 kts | 36° |
| 2026-05-04 20:53 | 13.49515 | -65.40788 | 44982 ft | 398 kts | 36° |
| 2026-05-04 20:53 | 13.53839 | -65.37235 | 44985 ft | 398 kts | 36° |
| 2026-05-04 20:54 | 13.58134 | -65.33705 | 44985 ft | 398 kts | 36° |
| 2026-05-04 20:54 | 13.62456 | -65.30151 | 44985 ft | 398 kts | 36° |
| 2026-05-04 20:55 | 13.66776 | -65.26596 | 44984 ft | 398 kts | 36° |
| 2026-05-04 20:55 | 13.71067 | -65.23063 | 44985 ft | 398 kts | 36° |
| 2026-05-04 20:56 | 13.75381 | -65.19510 | 44987 ft | 398 kts | 36° |
| 2026-05-04 20:56 | 13.79698 | -65.15953 | 44986 ft | 397 kts | 36° |
| 2026-05-04 20:57 | 13.84013 | -65.12394 | 44987 ft | 397 kts | 36° |
| 2026-05-04 20:57 | 13.88298 | -65.08859 | 44986 ft | 397 kts | 36° |
| 2026-05-04 20:58 | 13.92611 | -65.05299 | 44987 ft | 397 kts | 36° |
| 2026-05-04 20:58 | 13.96919 | -65.01740 | 44996 ft | 397 kts | 36° |
| 2026-05-04 20:59 | 14.01225 | -64.98185 | 44993 ft | 397 kts | 36° |
| 2026-05-04 20:59 | 14.05540 | -64.94657 | 44990 ft | 395 kts | 32° |
| 2026-05-04 21:00 | 14.10131 | -64.91653 | 44994 ft | 394 kts | 30° |
| 2026-05-04 21:00 | 14.14731 | -64.88587 | 44996 ft | 394 kts | 30° |
| 2026-05-04 21:01 | 14.19350 | -64.85553 | 44996 ft | 394 kts | 30° |
| 2026-05-04 21:01 | 14.23927 | -64.82521 | 45000 ft | 393 kts | 30° |
| 2026-05-04 21:02 | 14.28533 | -64.79481 | 45001 ft | 393 kts | 30° |
| 2026-05-04 21:02 | 14.33141 | -64.76433 | 44999 ft | 393 kts | 30° |
| 2026-05-04 21:03 | 14.37749 | -64.73386 | 44999 ft | 393 kts | 30° |
| 2026-05-04 21:03 | 14.42355 | -64.70336 | 45000 ft | 393 kts | 30° |
| 2026-05-04 21:04 | 14.46930 | -64.67306 | 45000 ft | 393 kts | 30° |
| 2026-05-04 21:04 | 14.51534 | -64.64256 | 45014 ft | 393 kts | 30° |
| 2026-05-04 21:05 | 14.56130 | -64.61208 | 45014 ft | 393 kts | 30° |
| 2026-05-04 21:05 | 14.60731 | -64.58156 | 45014 ft | 393 kts | 30° |
| 2026-05-04 21:06 | 14.65302 | -64.55122 | 45014 ft | 393 kts | 30° |
| 2026-05-04 21:06 | 14.69897 | -64.52071 | 45015 ft | 393 kts | 30° |
| 2026-05-04 21:07 | 14.74497 | -64.49016 | 45015 ft | 393 kts | 30° |
| 2026-05-04 21:07 | 14.79096 | -64.45960 | 45015 ft | 393 kts | 30° |
| 2026-05-04 21:08 | 14.83695 | -64.42902 | 45016 ft | 393 kts | 30° |
| 2026-05-04 21:08 | 14.88263 | -64.39864 | 45016 ft | 393 kts | 30° |
| 2026-05-04 21:09 | 14.92861 | -64.36804 | 45016 ft | 393 kts | 30° |
| 2026-05-04 21:09 | 14.97460 | -64.33742 | 45016 ft | 393 kts | 30° |
| 2026-05-04 21:10 | 15.02053 | -64.30682 | 45016 ft | 393 kts | 30° |
| 2026-05-04 21:10 | 15.06622 | -64.27636 | 45017 ft | 393 kts | 30° |
| 2026-05-04 21:11 | 15.11213 | -64.24574 | 45022 ft | 393 kts | 30° |
| 2026-05-04 21:11 | 15.15807 | -64.21507 | 45022 ft | 393 kts | 30° |
| 2026-05-04 21:12 | 15.20401 | -64.18439 | 45023 ft | 393 kts | 30° |
| 2026-05-04 21:12 | 15.24966 | -64.15389 | 45021 ft | 393 kts | 30° |
| 2026-05-04 21:13 | 15.29561 | -64.12317 | 45020 ft | 394 kts | 30° |
| 2026-05-04 21:13 | 15.34166 | -64.09238 | 45020 ft | 394 kts | 30° |
| 2026-05-04 21:14 | 15.38772 | -64.06156 | 45020 ft | 394 kts | 30° |
| 2026-05-04 21:14 | 15.43350 | -64.03091 | 45021 ft | 394 kts | 30° |
| 2026-05-04 21:15 | 15.47961 | -64.00003 | 45021 ft | 395 kts | 30° |
| 2026-05-04 21:15 | 15.52573 | -63.96913 | 45022 ft | 395 kts | 30° |
| 2026-05-04 21:16 | 15.57184 | -63.93821 | 45023 ft | 395 kts | 30° |
| 2026-05-04 21:16 | 15.61759 | -63.90752 | 45023 ft | 395 kts | 30° |
| 2026-05-04 21:17 | 15.66369 | -63.87658 | 45023 ft | 395 kts | 30° |
| 2026-05-04 21:17 | 15.70980 | -63.84562 | 45023 ft | 395 kts | 30° |
| 2026-05-04 21:18 | 15.75591 | -63.81463 | 45024 ft | 395 kts | 30° |
| 2026-05-04 21:18 | 15.80170 | -63.78384 | 45024 ft | 395 kts | 30° |
| 2026-05-04 21:19 | 15.84775 | -63.75286 | 45024 ft | 395 kts | 30° |
| 2026-05-04 21:19 | 15.89385 | -63.72182 | 45025 ft | 395 kts | 30° |
| 2026-05-04 21:20 | 15.93994 | -63.69077 | 45025 ft | 395 kts | 30° |
| 2026-05-04 21:20 | 15.98600 | -63.65973 | 45025 ft | 395 kts | 30° |
| 2026-05-04 21:21 | 16.03178 | -63.62886 | 45025 ft | 395 kts | 30° |
| 2026-05-04 21:21 | 16.07788 | -63.59776 | 45025 ft | 395 kts | 30° |
| 2026-05-04 21:22 | 16.12396 | -63.56666 | 45025 ft | 395 kts | 30° |
| 2026-05-04 21:22 | 16.14689 | -63.55119 | 44523 ft | 394 kts | 30° |
| 2026-05-04 21:22 | 16.16996 | -63.53561 | 43785 ft | 395 kts | 30° |
| 2026-05-04 21:23 | 16.19272 | -63.52024 | 43056 ft | 395 kts | 30° |
| 2026-05-04 21:23 | 16.21574 | -63.50467 | 42317 ft | 394 kts | 31° |
| 2026-05-04 21:23 | 16.23868 | -63.48916 | 41531 ft | 394 kts | 31° |
| 2026-05-04 21:23 | 16.26164 | -63.47364 | 40740 ft | 393 kts | 31° |
| 2026-05-04 21:24 | 16.28453 | -63.45815 | 39955 ft | 392 kts | 31° |
| 2026-05-04 21:24 | 16.30731 | -63.44273 | 39169 ft | 390 kts | 32° |
| 2026-05-04 21:24 | 16.33001 | -63.42738 | 38264 ft | 390 kts | 32° |
| 2026-05-04 21:24 | 16.35280 | -63.41194 | 37283 ft | 391 kts | 32° |
| 2026-05-04 21:25 | 16.37534 | -63.39670 | 36383 ft | 390 kts | 31° |
| 2026-05-04 21:25 | 16.39799 | -63.38134 | 35525 ft | 387 kts | 31° |
| 2026-05-04 21:25 | 16.42047 | -63.36610 | 34661 ft | 384 kts | 31° |
| 2026-05-04 21:25 | 16.44276 | -63.35099 | 33795 ft | 381 kts | 31° |
| 2026-05-04 21:26 | 16.46487 | -63.33601 | 32929 ft | 377 kts | 31° |
| 2026-05-04 21:26 | 16.48678 | -63.32116 | 32061 ft | 374 kts | 31° |
| 2026-05-04 21:26 | 16.50849 | -63.30643 | 31193 ft | 371 kts | 31° |
| 2026-05-04 21:26 | 16.52995 | -63.29186 | 30327 ft | 367 kts | 31° |
| 2026-05-04 21:27 | 16.55096 | -63.27757 | 29466 ft | 363 kts | 31° |
| 2026-05-04 21:27 | 16.57203 | -63.26336 | 28598 ft | 359 kts | 32° |
| 2026-05-04 21:27 | 16.59285 | -63.24919 | 27722 ft | 356 kts | 32° |
| 2026-05-04 21:27 | 16.61345 | -63.23517 | 26860 ft | 353 kts | 33° |
| 2026-05-04 21:28 | 16.63394 | -63.22126 | 25990 ft | 350 kts | 33° |
| 2026-05-04 21:28 | 16.65424 | -63.20747 | 25122 ft | 347 kts | 34° |
| 2026-05-04 21:28 | 16.67436 | -63.19380 | 24250 ft | 343 kts | 34° |
| 2026-05-04 21:28 | 16.69428 | -63.18026 | 23385 ft | 340 kts | 34° |
| 2026-05-04 21:29 | 16.71402 | -63.16683 | 22508 ft | 337 kts | 34° |
| 2026-05-04 21:29 | 16.73331 | -63.15366 | 21651 ft | 334 kts | 33° |
| 2026-05-04 21:29 | 16.75274 | -63.14050 | 20780 ft | 332 kts | 33° |
| 2026-05-04 21:29 | 16.77198 | -63.12739 | 19910 ft | 329 kts | 33° |
| 2026-05-04 21:30 | 16.79106 | -63.11441 | 19041 ft | 326 kts | 32° |
| 2026-05-04 21:30 | 16.80989 | -63.10156 | 18173 ft | 322 kts | 32° |
| 2026-05-04 21:30 | 16.82857 | -63.08884 | 17306 ft | 319 kts | 31° |
| 2026-05-04 21:30 | 16.84712 | -63.07622 | 16333 ft | 319 kts | 32° |
| 2026-05-04 21:31 | 16.88440 | -63.05084 | 14302 ft | 320 kts | 32° |
| 2026-05-04 21:31 | 16.90272 | -63.03833 | 13296 ft | 318 kts | 33° |
| 2026-05-04 21:31 | 16.92116 | -63.02575 | 12336 ft | 314 kts | 33° |
| 2026-05-04 21:32 | 16.93934 | -63.01335 | 11436 ft | 306 kts | 33° |
| 2026-05-04 21:32 | 16.95639 | -63.00188 | 10543 ft | 277 kts | 32° |
| 2026-05-04 21:32 | 16.97332 | -62.99438 | 9614 ft | 255 kts | 18° |
| 2026-05-04 21:32 | 16.98958 | -62.98825 | 8692 ft | 245 kts | 26° |
| 2026-05-04 21:33 | 17.00510 | -62.98136 | 8124 ft | 241 kts | 25° |
| 2026-05-04 21:33 | 17.02038 | -62.97526 | 7860 ft | 237 kts | 24° |
| 2026-05-04 21:33 | 17.03570 | -62.96912 | 7561 ft | 236 kts | 24° |
| 2026-05-04 21:33 | 17.05106 | -62.96302 | 7233 ft | 235 kts | 25° |
| 2026-05-04 21:34 | 17.06635 | -62.95682 | 6913 ft | 236 kts | 24° |
| 2026-05-04 21:34 | 17.08164 | -62.95071 | 6599 ft | 234 kts | 25° |
| 2026-05-04 21:34 | 17.09676 | -62.94458 | 6291 ft | 234 kts | 25° |
| 2026-05-04 21:34 | 17.11189 | -62.93855 | 5981 ft | 232 kts | 25° |
| 2026-05-04 21:35 | 17.12690 | -62.93247 | 5673 ft | 231 kts | 25° |
| 2026-05-04 21:35 | 17.14167 | -62.92655 | 5370 ft | 229 kts | 25° |
| 2026-05-04 21:35 | 17.15634 | -62.92060 | 5071 ft | 223 kts | 25° |
| 2026-05-04 21:35 | 17.17072 | -62.91485 | 4776 ft | 219 kts | 25° |
| 2026-05-04 21:36 | 17.18471 | -62.90884 | 4483 ft | 214 kts | 32° |
| 2026-05-04 21:36 | 17.19599 | -62.89924 | 4193 ft | 207 kts | 50° |
| 2026-05-04 21:36 | 17.20438 | -62.88738 | 3925 ft | 200 kts | 62° |
| 2026-05-04 21:36 | 17.21185 | -62.87540 | 3668 ft | 193 kts | 59° |
| 2026-05-04 21:37 | 17.21927 | -62.86401 | 3416 ft | 187 kts | 59° |
| 2026-05-04 21:37 | 17.22630 | -62.85280 | 3172 ft | 182 kts | 60° |
| 2026-05-04 21:37 | 17.23307 | -62.84216 | 3033 ft | 174 kts | 60° |
| 2026-05-04 21:37 | 17.23961 | -62.83177 | 2922 ft | 168 kts | 60° |
| 2026-05-04 21:38 | 17.24612 | -62.82153 | 2641 ft | 169 kts | 60° |
| 2026-05-04 21:38 | 17.25234 | -62.81166 | 2342 ft | 156 kts | 60° |
| 2026-05-04 21:38 | 17.25820 | -62.80255 | 2126 ft | 141 kts | 59° |
| 2026-05-04 21:38 | 17.26331 | -62.79450 | 1906 ft | 126 kts | 61° |
| 2026-05-04 21:39 | 17.26797 | -62.78703 | 1710 ft | 119 kts | 60° |
| 2026-05-04 21:39 | 17.27247 | -62.78003 | 1520 ft | 113 kts | 60° |
| 2026-05-04 21:39 | 17.27658 | -62.77334 | 1355 ft | 109 kts | 60° |
| 2026-05-04 21:39 | 17.28081 | -62.76682 | 1186 ft | 108 kts | 60° |
| 2026-05-04 21:40 | 17.28485 | -62.76024 | 1023 ft | 107 kts | 61° |
| 2026-05-04 21:40 | 17.28905 | -62.75384 | 859 ft | 106 kts | 59° |
| 2026-05-04 21:40 | 17.29302 | -62.74732 | 693 ft | 106 kts | 61° |
| 2026-05-04 21:40 | 17.29720 | -62.74087 | 534 ft | 108 kts | 58° |
| 2026-05-04 21:41 | 17.30132 | -62.73434 | 391 ft | 107 kts | 57° |
| 2026-05-04 21:41 | 17.30544 | -62.72785 | 239 ft | 107 kts | 56° |
| 2026-05-04 21:41 | 17.30937 | -62.72160 | 170 ft | 91 kts | 57° |
| 2026-05-04 21:41 | 17.31166 | -62.71795 | 167 ft | 43 kts | 56° |
| 2026-05-04 21:42 | 17.31290 | -62.71600 | 165 ft | 22 kts | 56° |
| 2026-05-04 21:42 | 17.31375 | -62.71465 | 162 ft | 22 kts | 57° |
| 2026-05-04 21:42 | 17.31407 | -62.71372 | 162 ft | 11 kts | 159° |
| 2026-05-04 21:42 | 17.31334 | -62.71409 | 158 ft | 13 kts | 211° |
| 2026-05-04 21:43 | 17.31262 | -62.71451 | 156 ft | 11 kts | 190° |
| 2026-05-04 21:43 | 17.31214 | -62.71423 | 155 ft | 5 kts | 110° |
| 2026-05-04 21:43 | 17.31213 | -62.71404 | 155 ft | 2 kts | 86° |
| 2026-05-04 21:43 | 17.31211 | -62.71382 | 155 ft | 4 kts | 129° |
| 2026-05-04 21:44 | 17.31205 | -62.71376 | 155 ft | 0 kts | 146° |